Time;durP1;ratioP1;P1;durP2;ratioP2;P2;SDS_P1;SDS_P2;PMS_P1;PMS_P2;Temp;Humidity;BMP_temperature;BMP_pressure;BME280_temperature;BME280_humidity;BME280_pressure;Samples;Min_cycle;Max_cycle;Signal;HPM_P1;HPM_P2
2023/07/05 00:02:56;;;;;;;13.03;7.87;;;;;;;17.55;76.53;100651.99;4967258;57;1140947;-75
2023/07/05 00:08:02;;;;;;;11.38;7.03;;;;;;;17.46;76.44;100647.59;4971103;57;1141497;-71
2023/07/05 00:13:08;;;;;;;10.38;7.42;;;;;;;17.12;76.15;100649.74;4943877;57;1140722;-73
2023/07/05 00:18:13;;;;;;;12.07;7.30;;;;;;;16.97;77.03;100645.13;4944129;58;1140747;-73
2023/07/05 00:23:19;;;;;;;13.50;7.27;;;;;;;16.93;77.88;100631.27;4963207;58;1140857;-70
2023/07/05 00:28:25;;;;;;;10.33;7.20;;;;;;;16.88;78.96;100635.75;4943930;57;1140690;-72
2023/07/05 00:33:36;;;;;;;19.57;7.87;;;;;;;16.85;79.51;100648.57;4943805;58;1140696;-74
2023/07/05 00:38:38;;;;;;;10.23;6.87;;;;;;;16.84;80.00;100645.55;4962350;57;1141168;-72
2023/07/05 00:43:49;;;;;;;10.67;6.90;;;;;;;16.86;79.96;100644.41;4994224;57;1140715;-74
2023/07/05 00:49:13;;;;;;;15.48;6.65;;;;;;;16.72;79.96;100639.63;4917297;58;1140858;-75
2023/07/05 00:54:25;;;;;;;10.13;6.77;;;;;;;16.72;79.96;100639.63;4938489;57;1141058;-74
2023/07/05 00:59:38;;;;;;;8.30;6.27;;;;;;;16.63;79.93;100627.23;4943189;57;1140859;-74
2023/07/05 01:04:45;;;;;;;13.00;7.13;;;;;;;16.51;79.18;100625.73;4944875;57;1138818;-72
2023/07/05 01:09:50;;;;;;;13.67;6.53;;;;;;;16.43;80.49;100635.87;4943833;57;1140916;-72
2023/07/05 01:15:05;;;;;;;17.00;6.27;;;;;;;16.43;80.25;100619.84;4963920;57;1140937;-72
2023/07/05 01:20:34;;;;;;;12.78;6.78;;;;;;;16.34;79.71;100609.27;4943879;58;1141022;-72
2023/07/05 01:26:08;;;;;;;15.90;7.27;;;;;;;16.25;80.28;100607.01;4924733;58;1140905;-71
2023/07/05 01:31:42;;;;;;;10.80;6.78;;;;;;;16.19;81.02;100615.64;4944447;57;1141108;-71
2023/07/05 01:36:48;;;;;;;14.83;6.90;;;;;;;16.26;81.89;100607.35;4937952;58;1141143;-75
2023/07/05 01:41:53;;;;;;;11.60;6.60;;;;;;;16.21;81.47;100610.97;4963705;58;1140947;-73
2023/07/05 01:47:10;;;;;;;8.10;6.80;;;;;;;16.15;81.48;100614.27;4960776;57;1141026;-73
2023/07/05 01:52:53;;;;;;;9.87;6.87;;;;;;;16.12;81.38;100621.23;4929189;57;1138890;-74
2023/07/05 01:58:09;;;;;;;8.93;6.37;;;;;;;15.98;80.96;100612.42;4943570;57;1200361;-73
2023/07/05 02:03:19;;;;;;;10.13;6.72;;;;;;;15.97;81.21;100620.08;4962071;57;1139046;-75
2023/07/05 02:08:27;;;;;;;8.50;6.30;;;;;;;15.90;82.15;100614.99;4944404;57;1141008;-75
2023/07/05 02:13:34;;;;;;;9.70;5.87;;;;;;;15.93;82.36;100621.36;4975889;57;1139072;-75
2023/07/05 02:18:39;;;;;;;10.90;6.63;;;;;;;16.00;82.41;100615.78;4995698;58;1138618;-73
2023/07/05 02:23:45;;;;;;;13.50;7.67;;;;;;;16.04;82.47;100617.17;4975764;58;1140880;-73
2023/07/05 02:28:51;;;;;;;15.28;7.70;;;;;;;15.86;81.60;100618.48;4975781;58;1141200;-74
2023/07/05 02:33:57;;;;;;;21.00;7.35;;;;;;;15.73;81.97;100617.52;5021800;57;1141139;-75
2023/07/05 02:39:03;;;;;;;13.83;6.13;;;;;;;15.64;82.30;100617.05;4993198;57;1141266;-74
2023/07/05 02:44:08;;;;;;;16.57;7.47;;;;;;;15.62;82.90;100616.36;4975850;56;1141100;-74
2023/07/05 02:49:14;;;;;;;9.45;5.90;;;;;;;15.57;82.84;100606.66;4995294;57;1140858;-70
2023/07/05 02:54:20;;;;;;;16.45;6.97;;;;;;;15.55;82.50;100621.09;4976012;56;1138888;-73
2023/07/05 02:59:25;;;;;;;15.33;7.17;;;;;;;15.58;83.51;100610.16;4975690;56;1140947;-72
2023/07/05 03:04:31;;;;;;;13.03;7.53;;;;;;;15.59;83.83;100605.15;4994891;57;1140828;-74
2023/07/05 03:09:37;;;;;;;19.80;6.57;;;;;;;15.52;84.41;100604.89;4976838;57;1141137;-73
2023/07/05 03:14:43;;;;;;;22.27;7.17;;;;;;;15.46;84.42;100596.14;5032615;57;1140911;-72
2023/07/05 03:19:48;;;;;;;10.20;5.40;;;;;;;15.37;85.48;100599.71;5029626;57;1140812;-74
2023/07/05 03:24:54;;;;;;;13.13;6.33;;;;;;;15.26;86.00;100603.42;5048787;57;1140788;-71
2023/07/05 03:30:00;;;;;;;12.10;6.53;;;;;;;15.30;87.01;100598.61;4999752;57;1141188;-75
2023/07/05 03:35:06;;;;;;;14.90;7.47;;;;;;;15.33;87.66;100600.48;4905396;58;1140993;-75
2023/07/05 03:40:13;;;;;;;13.78;6.87;;;;;;;15.35;88.23;100595.02;4925654;57;1141007;-76
2023/07/05 03:45:18;;;;;;;15.00;6.20;;;;;;;15.28;88.50;100584.59;4895026;59;1140983;-72
2023/07/05 03:50:24;;;;;;;10.93;6.37;;;;;;;15.21;89.18;100576.36;4894793;59;1140987;-73
2023/07/05 03:55:29;;;;;;;10.45;5.78;;;;;;;15.23;90.01;100576.22;4913574;59;1140935;-74
2023/07/05 04:00:35;;;;;;;10.80;6.07;;;;;;;15.30;90.87;100560.81;4894372;59;1140978;-70
2023/07/05 04:05:42;;;;;;;17.17;8.10;;;;;;;15.35;90.95;100561.70;4894774;59;1140950;-77
2023/07/05 04:10:51;;;;;;;15.60;7.00;;;;;;;15.36;91.78;100559.39;4828375;58;1141133;-74
2023/07/05 04:16:03;;;;;;;19.70;6.83;;;;;;;15.37;92.34;100558.40;4860462;58;1141176;-76
2023/07/05 04:21:09;;;;;;;13.18;6.30;;;;;;;15.46;92.87;100565.49;4806919;59;1141251;-71
2023/07/05 04:26:19;;;;;;;25.82;7.12;;;;;;;15.57;93.40;100573.83;4820892;58;1140957;-74
2023/07/05 04:31:29;;;;;;;21.33;6.30;;;;;;;15.64;93.61;100570.40;4883822;59;1140752;-74
2023/07/05 04:36:35;;;;;;;14.97;6.00;;;;;;;15.71;92.77;100566.65;4872686;58;1140827;-71
2023/07/05 04:41:40;;;;;;;9.23;5.30;;;;;;;15.75;91.92;100568.84;4933101;58;1141140;-75
2023/07/05 04:46:46;;;;;;;14.77;5.13;;;;;;;15.82;91.26;100571.75;4943808;57;1138831;-75
2023/07/05 04:51:52;;;;;;;14.40;5.23;;;;;;;15.93;91.09;100565.34;4903459;58;1140886;-75
2023/07/05 04:56:57;;;;;;;10.97;4.83;;;;;;;16.06;90.47;100562.64;4930885;57;1140840;-74
2023/07/05 05:02:05;;;;;;;12.05;3.92;;;;;;;16.18;89.47;100561.44;4954177;57;1141333;-73
2023/07/05 05:07:13;;;;;;;16.57;4.25;;;;;;;16.31;88.86;100561.03;4889332;57;1141005;-75
2023/07/05 05:12:18;;;;;;;16.62;4.30;;;;;;;16.45;88.02;100562.30;4884103;57;1141366;-75
2023/07/05 05:17:23;;;;;;;12.23;3.47;;;;;;;16.58;86.21;100549.88;4890310;57;1141155;-73
2023/07/05 05:22:30;;;;;;;9.17;3.63;;;;;;;16.72;86.48;100556.84;4914383;57;1141145;-74
2023/07/05 05:27:36;;;;;;;10.37;4.17;;;;;;;16.91;86.85;100563.80;4895247;57;1138820;-75
2023/07/05 05:32:42;;;;;;;23.43;4.20;;;;;;;17.10;83.92;100560.90;4899967;58;1141045;-72
2023/07/05 05:37:48;;;;;;;9.70;3.70;;;;;;;17.28;84.61;100567.47;4930091;57;1140947;-76
2023/07/05 05:42:53;;;;;;;12.23;3.80;;;;;;;17.45;83.46;100563.86;4903105;59;1138923;-76
2023/07/05 05:47:59;;;;;;;19.33;3.57;;;;;;;17.65;83.46;100552.92;4885716;57;1140730;-76
2023/07/05 05:53:05;;;;;;;12.50;4.07;;;;;;;17.84;82.42;100553.97;4949246;56;1141007;-75
2023/07/05 05:58:10;;;;;;;10.08;4.03;;;;;;;18.01;82.02;100560.18;4954815;56;1141119;-71
2023/07/05 06:03:16;;;;;;;10.33;4.13;;;;;;;18.18;81.78;100550.62;4965776;56;1150244;-70
2023/07/05 06:08:22;;;;;;;12.40;3.37;;;;;;;18.36;80.48;100541.09;4973750;57;1140870;-74
2023/07/05 06:13:29;;;;;;;10.33;3.80;;;;;;;18.52;79.19;100541.07;4994156;57;1141134;-76
2023/07/05 06:18:35;;;;;;;10.33;3.93;;;;;;;18.68;76.71;100525.50;4969465;58;1140951;-73
2023/07/05 06:23:40;;;;;;;10.40;3.60;;;;;;;18.87;76.91;100524.28;4947692;57;1141091;-74
2023/07/05 06:28:47;;;;;;;9.47;3.60;;;;;;;19.08;75.66;100511.66;4908739;58;1140946;-74
2023/07/05 06:33:52;;;;;;;9.37;3.87;;;;;;;19.24;75.46;100510.23;4903223;58;1139089;-70
2023/07/05 06:38:57;;;;;;;15.35;3.80;;;;;;;;;;4884115;58;1138884;-76
2023/07/05 06:44:02;;;;;;;9.83;3.50;;;;;;;19.65;73.71;100502.31;4918529;59;819953;-72
2023/07/05 06:49:08;;;;;;;14.05;4.00;;;;;;;19.90;72.17;100499.44;4902969;58;1137078;-72
2023/07/05 06:54:14;;;;;;;18.13;3.80;;;;;;;20.06;69.76;100493.94;4883413;58;1141078;-72
2023/07/05 06:59:19;;;;;;;12.07;3.15;;;;;;;20.25;68.00;100495.28;4890610;58;1141057;-70
2023/07/05 07:04:25;;;;;;;13.93;3.65;;;;;;;20.38;64.33;100480.75;4911436;57;1140928;-73
2023/07/05 07:09:31;;;;;;;18.07;4.28;;;;;;;20.60;63.22;100479.85;4891990;57;1141008;-73
2023/07/05 07:14:36;;;;;;;14.07;4.10;;;;;;;20.83;63.62;100485.63;4892344;58;1140824;-73
2023/07/05 07:19:42;;;;;;;8.03;3.80;;;;;;;20.96;63.00;100482.59;4852558;59;1140910;-75
2023/07/05 07:24:51;;;;;;;11.57;3.80;;;;;;;21.18;62.10;100479.98;4817734;59;1139076;-78
2023/07/05 07:29:56;;;;;;;12.95;4.25;;;;;;;21.35;64.26;100462.62;4831097;59;1140982;-78
2023/07/05 07:35:02;;;;;;;10.10;5.10;;;;;;;21.63;64.29;100459.50;4874735;58;1140939;-72
2023/07/05 07:40:09;;;;;;;10.03;4.67;;;;;;;21.86;61.00;100465.19;4826022;58;1140821;-74
2023/07/05 07:45:14;;;;;;;11.73;5.22;;;;;;;22.04;62.01;100456.16;4807293;58;1140944;-74
2023/07/05 07:50:20;;;;;;;8.15;4.85;;;;;;;22.24;60.07;100453.63;4821246;57;1140842;-74
2023/07/05 07:55:26;;;;;;;14.18;5.03;;;;;;;22.50;62.21;100448.92;4949044;56;1139131;-74
2023/07/05 08:00:31;;;;;;;8.33;5.30;;;;;;;22.81;60.66;100438.55;4944183;56;1140980;-75
2023/07/05 08:05:37;;;;;;;12.40;5.40;;;;;;;22.97;55.63;100423.37;4944534;56;1138691;-77
2023/07/05 08:10:43;;;;;;;11.26;5.78;;;;;;;23.10;56.70;100422.06;4946682;56;1140945;-74
2023/07/05 08:15:48;;;;;;;12.65;6.35;;;;;;;23.29;55.10;100404.78;4963267;56;1140865;-76
2023/07/05 08:20:54;;;;;;;12.40;6.62;;;;;;;23.46;55.37;100402.02;4941778;56;1140991;-73
2023/07/05 08:26:01;;;;;;;13.80;7.60;;;;;;;23.64;54.05;100404.14;4895764;56;1141088;-73
2023/07/05 08:31:08;;;;;;;13.03;7.20;;;;;;;23.75;54.02;100391.37;4910044;57;1204590;-74
2023/07/05 08:36:31;;;;;;;25.00;8.10;;;;;;;23.91;53.08;100386.89;4890042;57;1140985;-76
2023/07/05 08:41:48;;;;;;;11.38;8.78;;;;;;;23.89;53.84;100391.67;4864470;57;1140819;-76
2023/07/05 08:47:11;;;;;;;16.23;9.30;;;;;;;24.15;54.09;100383.52;4832277;58;1141079;-74
2023/07/05 08:52:27;;;;;;;16.27;9.70;;;;;;;24.41;54.11;100384.56;4836608;59;1141029;-76
2023/07/05 08:57:56;;;;;;;15.80;10.20;;;;;;;24.57;52.60;100376.50;4870324;58;1140958;-75
2023/07/05 09:03:04;;;;;;;19.75;11.80;;;;;;;24.66;53.69;100368.45;4861745;58;1143130;-76
2023/07/05 09:08:37;;;;;;;16.27;11.53;;;;;;;24.96;50.76;100359.28;4928105;58;1142805;-78
2023/07/05 09:13:44;;;;;;;22.25;11.70;;;;;;;25.12;50.78;100353.36;4951828;58;1143427;-74
2023/07/05 09:19:11;;;;;;;18.27;12.20;;;;;;;25.38;50.08;100365.87;4951851;57;1142920;-72
2023/07/05 09:24:36;;;;;;;20.37;12.25;;;;;;;25.46;50.76;100352.09;4899310;58;1142875;-75
2023/07/05 09:29:58;;;;;;;19.70;12.43;;;;;;;25.71;49.92;100346.17;4887702;58;1142779;-76
2023/07/05 09:35:04;;;;;;;17.42;13.20;;;;;;;25.97;49.74;100334.80;4810762;59;1142955;-73
2023/07/05 09:40:19;;;;;;;22.22;13.60;;;;;;;26.19;50.17;100334.12;4924095;58;1143043;-75
2023/07/05 09:45:27;;;;;;;25.65;14.05;;;;;;;26.39;48.98;100338.00;4946113;58;1142983;-71
2023/07/05 09:50:33;;;;;;;24.50;15.10;;;;;;;26.60;46.24;100325.30;4946981;56;1143015;-74
2023/07/05 09:56:00;;;;;;;20.95;14.33;;;;;;;26.68;45.73;100316.04;4948610;57;1143082;-75
2023/07/05 10:01:09;;;;;;;23.32;15.80;;;;;;;26.77;49.44;100309.75;4967154;58;1142990;-73
2023/07/05 10:06:19;;;;;;;21.50;15.25;;;;;;;27.01;45.38;100294.42;4966401;58;1142898;-75
2023/07/05 10:11:28;;;;;;;26.80;16.65;;;;;;;27.07;45.21;100287.52;4984689;58;1143238;-74
2023/07/05 10:16:55;;;;;;;26.35;17.07;;;;;;;27.23;45.17;100278.70;4965062;57;1142872;-77
2023/07/05 10:22:06;;;;;;;25.30;17.20;;;;;;;27.33;43.97;100271.35;4966429;58;1142944;-72
2023/07/05 10:27:34;;;;;;;27.00;15.90;;;;;;;27.54;44.65;100263.97;5001393;57;1142891;-72
2023/07/05 10:32:41;;;;;;;28.38;16.00;;;;;;;27.66;43.91;100252.59;5048840;57;1143088;-75
2023/07/05 10:37:46;;;;;;;20.37;15.32;;;;;;;27.83;42.90;100243.18;5003399;57;1142830;-72
2023/07/05 10:42:56;;;;;;;28.90;15.33;;;;;;;27.94;40.77;100253.77;4966793;58;1143373;-73
2023/07/05 10:48:02;;;;;;;18.82;14.95;;;;;;;28.03;40.09;100229.73;4983033;58;1143478;-75
2023/07/05 10:53:18;;;;;;;25.95;14.78;;;;;;;28.14;40.78;100226.98;4894375;58;1143542;-77
2023/07/05 10:58:28;;;;;;;21.27;14.67;;;;;;;28.30;38.72;100212.65;4887601;58;1142651;-72
2023/07/05 11:03:47;;;;;;;21.10;13.58;;;;;;;28.46;41.83;100192.53;4909428;57;1143315;-74
2023/07/05 11:08:53;;;;;;;28.47;14.40;;;;;;;28.62;38.03;100199.38;4958728;58;1143017;-74
2023/07/05 11:14:03;;;;;;;17.83;13.20;;;;;;;28.79;38.47;100208.09;4886761;57;1143177;-72
2023/07/05 11:19:12;;;;;;;19.95;12.25;;;;;;;28.94;38.80;100207.02;4906912;57;1143063;-77
2023/07/05 11:24:41;;;;;;;15.60;12.03;;;;;;;29.07;36.69;100199.06;4887410;58;1143245;-74
2023/07/05 11:29:47;;;;;;;18.00;11.15;;;;;;;29.04;37.45;100201.20;4915041;58;1142787;-75
2023/07/05 11:34:57;;;;;;;14.57;11.37;;;;;;;29.18;38.88;100175.02;4966737;58;1143185;-73
2023/07/05 11:40:05;;;;;;;21.00;11.97;;;;;;;29.35;36.98;100167.61;4916419;58;1142962;-72
2023/07/05 11:45:21;;;;;;;12.04;9.86;;;;;;;29.38;35.43;100166.61;4908642;59;1143059;-74
2023/07/05 11:50:29;;;;;;;17.20;9.00;;;;;;;29.40;35.90;100163.64;4859924;58;1141392;-75
2023/07/05 11:55:37;;;;;;;12.33;10.43;;;;;;;29.59;36.17;100153.28;4790833;59;1140736;-74
2023/07/05 12:00:58;;;;;;;15.50;10.60;;;;;;;29.65;35.18;100139.45;4771997;58;1192852;-74
2023/07/05 12:06:09;;;;;;;;;;;;;;;29.82;36.48;100135.30;4815904;58;1143451;-74
2023/07/05 12:11:17;;;;;;;12.93;9.78;;;;;;;30.12;34.54;100117.11;4777496;58;976355;-72
2023/07/05 12:16:23;;;;;;;17.45;8.78;;;;;;;30.24;36.18;100104.17;4886618;58;1138604;-73
2023/07/05 12:21:32;;;;;;;12.98;7.67;;;;;;;30.46;36.69;100103.25;4877237;58;1141420;-73
2023/07/05 12:26:39;;;;;;;12.73;8.23;;;;;;;30.51;33.95;100082.30;4852751;58;1140834;-72
2023/07/05 12:31:45;;;;;;;9.90;8.00;;;;;;;30.63;35.17;100073.41;4878197;57;1141235;-71
2023/07/05 12:36:51;;;;;;;11.48;7.67;;;;;;;30.53;35.02;100060.20;4907286;57;1138960;-72
2023/07/05 12:42:05;;;;;;;11.57;7.80;;;;;;;30.32;34.27;100055.94;4896051;57;1140786;-72
2023/07/05 12:47:16;;;;;;;8.53;7.17;;;;;;;30.18;34.38;100053.35;4958509;58;1141016;-73
2023/07/05 12:52:24;;;;;;;9.63;7.15;;;;;;;29.94;35.59;100051.47;4914797;58;1138941;-71
2023/07/05 12:57:33;;;;;;;13.37;7.97;;;;;;;29.82;34.18;100051.31;4884973;58;1138843;-69
2023/07/05 13:02:38;;;;;;;9.75;6.60;;;;;;;29.71;35.86;100048.48;4885811;58;1140884;-72
2023/07/05 13:07:45;;;;;;;14.53;6.78;;;;;;;29.64;34.75;100044.30;4858899;58;1139005;-73
2023/07/05 13:12:58;;;;;;;8.35;6.47;;;;;;;29.52;35.75;100036.27;4906719;57;1141193;-73
2023/07/05 13:18:30;;;;;;;14.05;8.68;;;;;;;29.34;35.24;100031.94;4887902;57;1138895;-74
2023/07/05 13:23:37;;;;;;;11.40;5.97;;;;;;;29.18;35.94;100034.75;4846955;57;1141137;-68
2023/07/05 13:28:44;;;;;;;8.32;5.30;;;;;;;29.03;35.88;100028.53;4840886;58;1140751;-73
2023/07/05 13:33:57;;;;;;;14.28;6.33;;;;;;;28.99;36.78;100021.42;4819180;59;1138792;-74
2023/07/05 13:39:04;;;;;;;6.95;5.50;;;;;;;28.94;37.05;100024.07;4793843;57;1140974;-72
2023/07/05 13:44:14;;;;;;;9.50;5.62;;;;;;;28.87;37.60;100013.09;4866754;58;1139100;-71
2023/07/05 13:49:20;;;;;;;14.28;8.25;;;;;;;28.77;37.70;100049.10;4861895;58;1139161;-75
2023/07/05 13:54:27;;;;;;;13.72;6.90;;;;;;;28.11;42.80;100122.77;4864263;57;1141127;-69
2023/07/05 13:59:32;;;;;;;19.48;6.00;;;;;;;25.86;59.45;100164.28;4811670;57;1141113;-72
2023/07/05 14:04:38;;;;;;;14.20;5.83;;;;;;;23.77;73.68;100155.69;4870173;58;1140859;-70
2023/07/05 14:09:43;;;;;;;31.68;24.65;;;;;;;22.43;82.06;100188.31;4878932;58;1141073;-71
2023/07/05 14:14:50;;;;;;;26.96;9.88;;;;;;;21.76;87.45;100211.95;4837941;58;1143143;-74
2023/07/05 14:19:55;;;;;;;7.62;5.22;;;;;;;21.48;92.50;100230.52;4759967;59;1140981;-76
2023/07/05 14:25:01;;;;;;;6.03;4.35;;;;;;;21.06;95.62;100216.94;4869551;58;1138673;-73
2023/07/05 14:30:08;;;;;;;4.78;3.85;;;;;;;20.63;100.00;100226.02;4876032;57;1139152;-74
2023/07/05 14:35:21;;;;;;;6.05;4.87;;;;;;;20.47;100.00;100230.31;4904997;58;1141141;-74
2023/07/05 14:40:28;;;;;;;11.87;7.43;;;;;;;20.55;95.26;100208.69;4892156;57;1141002;-71
2023/07/05 14:45:37;;;;;;;65.45;41.63;;;;;;;20.65;100.00;100141.50;4847045;57;1141008;-76
2023/07/05 14:50:43;;;;;;;14.70;9.08;;;;;;;21.01;100.00;100125.77;4783492;57;1145103;-74
2023/07/05 14:55:49;;;;;;;18.25;10.93;;;;;;;21.26;97.06;100128.84;4807816;57;1142856;-72
2023/07/05 15:00:54;;;;;;;11.20;7.07;;;;;;;21.45;100.00;100110.65;4799889;58;1143004;-73
2023/07/05 15:06:04;;;;;;;10.28;6.72;;;;;;;21.73;98.80;100101.97;4817610;57;1143146;-73
2023/07/05 15:11:12;;;;;;;9.03;6.22;;;;;;;22.05;97.98;100111.73;4785978;58;1140996;-72
2023/07/05 15:16:22;;;;;;;14.85;6.25;;;;;;;22.24;100.00;100128.98;4851069;58;1139043;-73
2023/07/05 15:21:27;;;;;;;8.98;6.25;;;;;;;22.19;100.00;100124.72;4914207;58;1143015;-71
2023/07/05 15:31:30;;;;;;;13.45;5.45;;;;;;;22.16;98.95;100183.03;5189535;55;47374;-76
2023/07/05 15:36:36;;;;;;;7.40;4.30;;;;;;;21.43;100.00;100270.62;5041553;56;1137082;-72
2023/07/05 15:41:42;;;;;;;6.40;4.95;;;;;;;20.95;100.00;100251.55;5000922;56;1141639;-77
2023/07/05 15:46:48;;;;;;;14.60;4.97;;;;;;;20.99;100.00;100267.63;5006394;56;1141484;-75
2023/07/05 15:51:53;;;;;;;37.28;8.88;;;;;;;20.96;100.00;100260.78;5037683;56;1143171;-76
2023/07/05 15:57:00;;;;;;;13.43;6.95;;;;;;;21.04;100.00;100270.59;5067555;56;1143215;-73
2023/07/05 16:02:11;;;;;;;16.20;6.95;;;;;;;21.09;100.00;100261.41;5060690;56;1142881;-71
2023/07/05 16:07:17;;;;;;;14.35;6.97;;;;;;;21.17;100.00;100259.11;5054949;56;1143469;-74
2023/07/05 16:12:23;;;;;;;13.60;6.90;;;;;;;21.12;100.00;100257.50;5096967;56;1143076;-73
2023/07/05 16:17:29;;;;;;;13.53;7.45;;;;;;;21.03;100.00;100259.51;5055085;56;1143072;-74
2023/07/05 16:22:34;;;;;;;13.68;7.72;;;;;;;20.93;100.00;100256.32;5055901;56;1143105;-73
2023/07/05 16:27:40;;;;;;;12.43;9.98;;;;;;;20.78;100.00;100252.31;5138347;56;1143303;-77
2023/07/05 16:32:46;;;;;;;15.38;9.38;;;;;;;20.79;100.00;100195.36;5114938;56;1143014;-70
2023/07/05 16:37:52;;;;;;;16.57;11.43;;;;;;;20.76;100.00;100187.71;5081903;56;1143640;-76
2023/07/05 16:42:58;;;;;;;24.60;20.08;;;;;;;20.75;100.00;100169.92;5085890;56;1145289;-74
2023/07/05 16:48:05;;;;;;;14.98;6.25;;;;;;;20.76;100.00;100158.98;5043139;56;1145530;-74
2023/07/05 16:53:11;;;;;;;15.32;10.93;;;;;;;20.78;100.00;100139.97;5122777;56;1143165;-70
2023/07/05 16:58:18;;;;;;;9.76;6.52;;;;;;;20.78;100.00;100148.84;5150881;56;1145488;-75
2023/07/05 17:03:23;;;;;;;11.22;7.60;;;;;;;20.82;100.00;100143.41;5055386;56;1141164;-71
2023/07/05 17:08:30;;;;;;;6.23;4.70;;;;;;;20.93;100.00;100163.02;5084419;56;1142974;-72
2023/07/05 17:13:36;;;;;;;11.03;6.22;;;;;;;21.02;100.00;100154.32;5160857;56;1141136;-77
2023/07/05 17:18:42;;;;;;;15.80;7.28;;;;;;;21.05;100.00;100144.52;5075828;56;1143175;-72
2023/07/05 17:23:48;;;;;;;10.28;4.72;;;;;;;21.00;100.00;100144.27;5040720;56;1143172;-73
2023/07/05 17:28:54;;;;;;;8.83;5.37;;;;;;;20.94;100.00;100156.63;5042017;57;1143444;-72
2023/07/05 17:33:59;;;;;;;9.53;6.25;;;;;;;20.86;100.00;100148.72;5072875;57;1140987;-74
2023/07/05 17:39:06;;;;;;;9.28;5.80;;;;;;;20.79;100.00;100153.19;5003147;57;1141087;-71
2023/07/05 17:44:11;;;;;;;6.87;4.55;;;;;;;20.87;100.00;100169.20;5003391;56;1140914;-72
2023/07/05 17:49:19;;;;;;;6.78;5.17;;;;;;;20.90;100.00;100174.70;5093778;56;1141123;-74
2023/07/05 17:54:25;;;;;;;6.90;4.58;;;;;;;20.93;100.00;100160.88;5039916;56;1140873;-73
2023/07/05 17:59:31;;;;;;;6.03;5.43;;;;;;;20.96;100.00;100163.16;5030953;57;1141225;-77
2023/07/05 18:04:37;;;;;;;9.67;5.63;;;;;;;21.03;100.00;100177.49;4864435;59;1140908;-73
2023/07/05 18:09:42;;;;;;;12.47;5.40;;;;;;;21.12;100.00;100171.45;4817516;59;1140995;-74
2023/07/05 18:14:48;;;;;;;5.05;4.53;;;;;;;21.13;100.00;100163.70;4992517;56;1143191;-77
2023/07/05 18:19:54;;;;;;;9.80;6.67;;;;;;;21.17;100.00;100179.77;5014860;57;1141104;-74
2023/07/05 18:24:59;;;;;;;7.83;5.97;;;;;;;21.23;100.00;100179.86;5031163;57;1141157;-76
2023/07/05 18:30:06;;;;;;;7.72;6.25;;;;;;;21.17;100.00;100191.36;5034883;57;1141532;-73
2023/07/05 18:35:12;;;;;;;6.22;5.08;;;;;;;21.14;100.00;100201.66;5005321;57;1140861;-74
2023/07/05 18:40:19;;;;;;;10.78;6.18;;;;;;;21.14;100.00;100209.22;5037840;57;1141113;-73
2023/07/05 18:45:25;;;;;;;11.60;8.07;;;;;;;21.14;100.00;100205.19;5053790;57;1143201;-74
2023/07/05 18:50:31;;;;;;;10.38;6.62;;;;;;;21.13;100.00;100221.00;5052098;57;1142831;-77
2023/07/05 18:55:38;;;;;;;9.20;6.35;;;;;;;21.05;100.00;100226.53;5073329;56;1143069;-76
2023/07/05 19:00:43;;;;;;;12.75;5.45;;;;;;;20.94;100.00;100236.45;5051825;57;1140894;-72
2023/07/05 19:05:56;;;;;;;9.93;5.55;;;;;;;20.90;100.00;100246.78;5041780;57;1143195;-75
2023/07/05 19:11:17;;;;;;;6.60;5.85;;;;;;;20.80;100.00;100250.28;5054368;57;1141119;-73
2023/07/05 19:16:25;;;;;;;8.68;5.05;;;;;;;20.65;100.00;100262.42;5072347;56;1141009;-75
2023/07/05 19:21:31;;;;;;;10.23;5.78;;;;;;;20.55;100.00;100268.63;5089989;56;1141078;-70
2023/07/05 19:26:36;;;;;;;12.47;6.23;;;;;;;20.52;100.00;100271.69;5089694;56;1143016;-74
2023/07/05 19:31:42;;;;;;;8.35;5.10;;;;;;;20.52;100.00;100283.78;5089395;56;1143046;-72
2023/07/05 19:36:49;;;;;;;6.55;5.25;;;;;;;20.43;100.00;100279.55;5041091;57;1140988;-74
2023/07/05 19:41:56;;;;;;;6.70;5.43;;;;;;;20.38;100.00;100281.13;5063034;56;1141137;-75
2023/07/05 19:47:01;;;;;;;6.72;5.42;;;;;;;20.41;100.00;100287.47;5080387;56;1140929;-73
2023/07/05 19:52:08;;;;;;;9.33;5.25;;;;;;;20.35;100.00;100292.53;5052746;57;1141103;-75
2023/07/05 19:57:13;;;;;;;7.33;5.80;;;;;;;20.27;100.00;100296.68;5052146;57;1140780;-73
2023/07/05 20:02:19;;;;;;;11.25;6.25;;;;;;;20.20;100.00;100301.13;5068748;56;1141331;-73
2023/07/05 20:07:24;;;;;;;6.05;5.50;;;;;;;20.14;100.00;100303.73;5057022;56;1142965;-73
2023/07/05 20:12:30;;;;;;;10.83;6.00;;;;;;;20.09;100.00;100308.81;5053140;56;1140742;-71
2023/07/05 20:17:36;;;;;;;8.15;5.85;;;;;;;20.05;100.00;100315.06;5073186;57;1142968;-76
2023/07/05 20:22:41;;;;;;;8.08;5.60;;;;;;;20.05;100.00;100323.12;5053215;57;1141098;-71
2023/07/05 20:27:48;;;;;;;8.15;4.80;;;;;;;20.03;100.00;100327.33;5022688;56;1140848;-72
2023/07/05 20:32:53;;;;;;;6.35;4.72;;;;;;;20.00;100.00;100326.38;5052722;56;1141120;-72
2023/07/05 20:37:59;;;;;;;8.12;5.36;;;;;;;19.95;100.00;100332.80;5046686;56;1140698;-74
2023/07/05 20:43:06;;;;;;;7.25;5.15;;;;;;;19.86;100.00;100345.95;5116646;56;1140982;-72
2023/07/05 20:48:12;;;;;;;9.73;4.90;;;;;;;19.84;100.00;100361.44;5078131;56;1140857;-76
2023/07/05 20:53:17;;;;;;;7.67;5.28;;;;;;;19.77;100.00;100374.41;5118060;56;1140900;-75
2023/07/05 20:58:23;;;;;;;9.10;4.72;;;;;;;19.74;100.00;100385.00;5128770;56;1141193;-73
2023/07/05 21:03:30;;;;;;;6.47;5.13;;;;;;;19.75;100.00;100400.08;5102696;56;1140988;-76
2023/07/05 21:08:36;;;;;;;13.68;4.78;;;;;;;19.69;100.00;100408.04;5099068;56;1140925;-74
2023/07/05 21:13:42;;;;;;;9.60;6.05;;;;;;;19.62;100.00;100401.20;5107321;56;1142837;-75
2023/07/05 21:18:48;;;;;;;9.25;5.20;;;;;;;19.51;100.00;100412.38;5094333;56;1141337;-75
2023/07/05 21:23:54;;;;;;;7.10;4.78;;;;;;;19.36;100.00;100420.83;5091895;56;1141074;-78
2023/07/05 21:29:01;;;;;;;9.78;4.75;;;;;;;19.22;100.00;100422.44;5114197;56;1141066;-73
2023/07/05 21:34:06;;;;;;;7.55;4.70;;;;;;;19.10;100.00;100430.02;5082089;56;1141002;-75
2023/07/05 21:39:12;;;;;;;7.67;5.05;;;;;;;18.98;100.00;100452.37;5093002;56;1141033;-75
2023/07/05 21:44:18;;;;;;;18.30;4.62;;;;;;;18.89;100.00;100457.45;5087660;56;1140810;-74
2023/07/05 21:49:25;;;;;;;8.43;5.03;;;;;;;18.81;100.00;100470.86;5060574;56;1143087;-74
2023/07/05 21:54:30;;;;;;;10.60;4.37;;;;;;;18.74;100.00;100475.77;5065784;56;1140923;-70
2023/07/05 21:59:36;;;;;;;11.57;4.30;;;;;;;18.70;100.00;100481.96;5094100;56;1143179;-76
2023/07/05 22:04:43;;;;;;;8.33;4.20;;;;;;;18.67;100.00;100486.32;5096702;56;1143003;-78
2023/07/05 22:09:48;;;;;;;8.90;4.85;;;;;;;18.65;100.00;100495.03;5129030;56;1140936;-73
2023/07/05 22:14:54;;;;;;;10.98;4.83;;;;;;;18.64;100.00;100497.91;5128985;56;1141051;-75
2023/07/05 22:19:59;;;;;;;14.83;4.50;;;;;;;18.63;100.00;100509.62;5095150;56;1143111;-73
2023/07/05 22:25:06;;;;;;;8.73;4.30;;;;;;;18.64;100.00;100516.66;5041572;57;1143069;-75
2023/07/05 22:30:12;;;;;;;14.70;5.35;;;;;;;18.61;100.00;100520.01;5053523;57;1141245;-75
2023/07/05 22:35:18;;;;;;;11.22;4.47;;;;;;;18.60;100.00;100530.89;5073132;57;1143287;-75
2023/07/05 22:40:25;;;;;;;15.93;4.53;;;;;;;18.56;100.00;100550.45;5054322;57;1143191;-75
2023/07/05 22:45:30;;;;;;;7.87;4.17;;;;;;;18.56;100.00;100552.29;5027534;57;1142908;-72
2023/07/05 22:50:36;;;;;;;14.10;4.60;;;;;;;18.60;100.00;100561.70;5062418;57;1140827;-72
2023/07/05 22:55:42;;;;;;;7.22;4.55;;;;;;;18.73;100.00;100566.02;5042242;56;1143244;-71
2023/07/05 23:00:48;;;;;;;6.47;3.42;;;;;;;18.93;100.00;100561.97;4990875;56;1140752;-76
2023/07/05 23:05:57;;;;;;;4.33;3.83;;;;;;;18.92;100.00;100560.80;4960505;56;1141025;-72
2023/07/05 23:11:11;;;;;;;7.58;3.80;;;;;;;18.74;100.00;100549.45;4980178;57;1140966;-75